Washington, DC (20003)

2:07 PM EDT on May 22, 2017 (GMT -0400)
Capitol Hill | | Change Station

Elev 72 ft 38.88 °N, 76.99 °W | Updated 4 seconds ago

Overcast
Overcast
69.1 °F
Feels Like 69.1 °F
N
3.4
Wind Variable Wind from SW
Gusts 4.9 mph

Today
High -- | Low -- °F
--% Chance of Precip.
Yesterday
High -- | Low -- °F
Precip. -- in
Pressure 30.01 in
Visibility 10.0 miles
Clouds Mostly Cloudy 1000 ft
Overcast 7000 ft
Dew Point 64 °F
Humidity 84%
Rainfall 0.32 in
Snow Depth Not available.
5:49 AM 8:19 PM
Waning Crescent, 13% visible
METAR KDCA 221752Z 17006KT 10SM BKN010 OVC070 19/18 A3001 RMK AO2 SLP162 60019 T01940178 10194 20150 58016
Pressure 30.01 in
Visibility 10.0 miles
Clouds Mostly Cloudy 1000 ft
Overcast 7000 ft
Dew Point 64 °F
Humidity 84%
Rainfall 0.32 in
Snow Depth Not available.
5:49 AM 8:19 PM
Waning Crescent, 13% visible
METAR KDCA 221752Z 17006KT 10SM BKN010 OVC070 19/18 A3001 RMK AO2 SLP162 60019 T01940178 10194 20150 58016

Get Severe Weather Alerts

Thanks for signing up!

Be on the lookout for a verification email in your inbox.

You'll start receiving the daily forecast at 8 AM.

×

10-Day Weather Forecast

Almanac

Astronomy

May. 22, 2017 Rise Set
Actual Time
Civil Twilight
Nautical Twilight
Astronomical Twilight
Moon
Length of Visible Light
Length of Day
Tomorrow will be .
, % of the Moon is Illuminated

Today's Extremes

State Highs State Lows

Community

WunderPhotos

Category 6

Welcome to Category 6. This is the collective home for Weather Underground's featured writeups by Dr. Jeff Masters (right), Bob Henson (left), Chris Burt, and other regular contributors.

Nearby

Air Quality

  Air Quality AQ Index Pollutant
Not available.

Snow Depth

Station Depth Elevation

Earthquake Activity

City Distance Mag. Time & Date
Minimum magnitude displayed is 2.5.

Coastal Water Temperatures

Place Temperature

Stations

Nearby Weather Stations

Station Location Temp. Windchill Dew Point Humidity Wind Precip. Elev Updated Type
                   

Watches & Warnings

There are currently no watches in effect.